Time;durP1;ratioP1;P1;durP2;ratioP2;P2;SDS_P1;SDS_P2;PMS_P1;PMS_P2;Temp;Humidity;BMP_temperature;BMP_pressure;BME280_temperature;BME280_humidity;BME280_pressure;Samples;Min_cycle;Max_cycle;Signal;HPM_P1;HPM_P2
2022/08/21 00:01:57;;;;;;;33.50;7.20;;;;;;;18.60;100.00;99310.34;1704284;82;21013;-69
2022/08/21 00:04:24;;;;;;;23.62;6.60;;;;;;;18.59;100.00;99308.75;1731777;81;21073;-68
2022/08/21 00:06:51;;;;;;;26.12;6.30;;;;;;;18.58;100.00;99303.56;1737805;82;21067;-69
2022/08/21 00:09:18;;;;;;;21.42;6.17;;;;;;;18.55;100.00;99308.37;1732857;81;21097;-70
2022/08/21 00:11:44;;;;;;;21.73;6.92;;;;;;;18.52;100.00;99298.83;1729155;82;21001;-68
2022/08/21 00:14:10;;;;;;;28.12;6.42;;;;;;;18.51;100.00;99293.64;1719699;82;21392;-68
2022/08/21 00:16:38;;;;;;;30.57;7.25;;;;;;;18.50;100.00;99307.15;1733895;82;21018;-68
2022/08/21 00:19:06;;;;;;;27.77;6.25;;;;;;;18.51;100.00;99297.78;1732287;82;21075;-68
2022/08/21 00:21:34;;;;;;;30.88;7.37;;;;;;;18.50;100.00;99302.45;1719776;82;21057;-68
2022/08/21 00:24:01;;;;;;;31.50;6.50;;;;;;;18.48;100.00;99298.42;1731536;81;21086;-69
2022/08/21 00:26:28;;;;;;;26.82;6.17;;;;;;;18.46;100.00;99304.25;1720896;82;21040;-68
2022/08/21 00:28:54;;;;;;;28.40;7.05;;;;;;;18.46;100.00;99310.36;1700768;83;21088;-68
2022/08/21 00:31:20;;;;;;;29.10;7.17;;;;;;;18.46;100.00;99307.00;1726953;81;20995;-68
2022/08/21 00:33:47;;;;;;;27.50;6.42;;;;;;;18.49;100.00;99305.55;1725658;81;21112;-68
2022/08/21 00:36:14;;;;;;;28.47;6.22;;;;;;;18.50;100.00;99309.91;1733206;81;21510;-68
2022/08/21 00:38:40;;;;;;;18.95;6.20;;;;;;;18.50;100.00;99306.58;1728132;80;21040;-68
2022/08/21 00:41:08;;;;;;;23.42;6.22;;;;;;;18.52;100.00;99301.59;1725385;81;21074;-67
2022/08/21 00:43:35;;;;;;;29.32;6.45;;;;;;;18.53;100.00;99298.27;1730611;81;21096;-68
2022/08/21 00:46:03;;;;;;;33.13;6.92;;;;;;;18.52;100.00;99293.32;1742512;81;21642;-68
2022/08/21 00:48:30;;;;;;;26.40;6.37;;;;;;;18.47;100.00;99290.72;1738386;80;21157;-69
2022/08/21 00:51:07;;;;;;;27.40;7.10;;;;;;;18.46;100.00;99299.34;1730734;81;21514;-68
2022/08/21 00:53:36;;;;;;;23.22;6.37;;;;;;;18.44;100.00;99303.79;1742210;80;21134;-68
2022/08/21 00:56:04;;;;;;;21.75;6.58;;;;;;;18.43;100.00;99309.63;1733400;81;21096;-68
2022/08/21 00:58:31;;;;;;;20.77;5.92;;;;;;;18.42;100.00;99302.52;1738721;81;21212;-68
2022/08/21 01:00:57;;;;;;;29.07;6.78;;;;;;;18.40;100.00;99307.78;1727684;82;21066;-68
2022/08/21 01:03:25;;;;;;;28.85;6.17;;;;;;;18.39;100.00;99305.34;1727353;81;21644;-68
2022/08/21 01:05:52;;;;;;;25.40;7.00;;;;;;;18.37;100.00;99306.27;1717647;81;21166;-68
2022/08/21 01:08:18;;;;;;;26.75;6.90;;;;;;;18.39;100.00;99302.59;1739030;80;21588;-69
2022/08/21 01:10:45;;;;;;;26.02;6.35;;;;;;;18.42;100.00;99312.16;1731908;81;21062;-69
2022/08/21 01:13:12;;;;;;;22.10;6.42;;;;;;;18.38;100.00;99307.33;1723357;82;21070;-68
2022/08/21 01:15:43;;;;;;;28.70;6.22;;;;;;;18.38;100.00;99304.56;1719885;83;21621;-69
2022/08/21 01:18:10;;;;;;;20.85;6.17;;;;;;;18.37;100.00;99304.32;1725845;80;21117;-68
2022/08/21 01:20:39;;;;;;;22.85;6.12;;;;;;;18.36;100.00;99304.64;1730272;81;21034;-68
2022/08/21 01:23:06;;;;;;;24.55;6.58;;;;;;;18.40;100.00;99313.30;1719925;81;21647;-68
2022/08/21 01:25:32;;;;;;;27.62;7.22;;;;;;;18.43;100.00;99306.30;1731758;81;20977;-68
2022/08/21 01:28:00;;;;;;;21.05;5.83;;;;;;;18.47;100.00;99315.52;1736529;81;21074;-68
2022/08/21 01:30:27;;;;;;;28.87;6.70;;;;;;;18.53;100.00;99303.78;1731762;81;21076;-68
2022/08/21 01:32:54;;;;;;;26.20;6.00;;;;;;;18.58;100.00;99299.43;1734548;80;21030;-68
2022/08/21 01:35:20;;;;;;;25.60;6.35;;;;;;;18.63;100.00;99304.19;1722138;81;21098;-69
2022/08/21 01:37:47;;;;;;;20.45;6.55;;;;;;;18.67;100.00;99301.57;1741834;81;21102;-68
2022/08/21 01:40:15;;;;;;;23.95;6.75;;;;;;;18.71;100.00;99304.68;1730548;81;21620;-68
2022/08/21 01:42:43;;;;;;;21.68;6.15;;;;;;;18.73;100.00;99301.03;1744480;81;21080;-69
2022/08/21 01:45:09;;;;;;;24.77;6.97;;;;;;;18.75;100.00;99302.87;1737414;81;21068;-68
2022/08/21 01:47:38;;;;;;;27.67;6.72;;;;;;;18.82;100.00;99306.47;1736888;81;21015;-68
2022/08/21 01:50:07;;;;;;;22.82;6.45;;;;;;;18.84;100.00;99312.47;1743501;81;21022;-69
2022/08/21 01:52:33;;;;;;;22.87;5.90;;;;;;;18.85;100.00;99303.03;1744158;81;21043;-69
2022/08/21 01:55:00;;;;;;;26.42;6.95;;;;;;;18.87;100.00;99300.76;1738766;81;21526;-68
2022/08/21 01:57:26;;;;;;;30.37;6.72;;;;;;;18.89;100.00;99302.59;1739105;81;21329;-69
2022/08/21 01:59:52;;;;;;;30.75;7.00;;;;;;;18.89;100.00;99297.08;1731867;81;21580;-68
2022/08/21 02:02:19;;;;;;;23.32;6.42;;;;;;;18.92;100.00;99303.30;1744128;80;21025;-68
2022/08/21 02:04:45;;;;;;;30.60;6.65;;;;;;;18.94;100.00;99297.45;1746585;81;21588;-69
2022/08/21 02:07:11;;;;;;;24.43;6.80;;;;;;;18.93;100.00;99293.08;1733624;81;21005;-69
2022/08/21 02:09:38;;;;;;;27.32;7.03;;;;;;;18.93;100.00;99296.64;1737444;81;21073;-69
2022/08/21 02:12:05;;;;;;;35.10;7.42;;;;;;;18.92;100.00;99299.76;1745124;81;21034;-69
2022/08/21 02:14:32;;;;;;;26.65;6.72;;;;;;;18.91;100.00;99298.95;1736554;80;21096;-69
2022/08/21 02:16:58;;;;;;;26.17;6.58;;;;;;;18.94;100.00;99301.59;1734579;81;21325;-69
2022/08/21 02:19:24;;;;;;;26.15;6.67;;;;;;;18.97;100.00;99304.48;1742749;80;21067;-69
2022/08/21 02:21:51;;;;;;;26.27;6.50;;;;;;;19.00;100.00;99302.99;1746352;81;21023;-69
2022/08/21 02:24:18;;;;;;;24.10;6.50;;;;;;;19.01;100.00;99305.42;1748100;80;21070;-69
2022/08/21 02:26:44;;;;;;;28.17;6.90;;;;;;;19.01;100.00;99293.02;1733937;81;21406;-69
2022/08/21 02:29:11;;;;;;;25.95;7.53;;;;;;;19.01;100.00;99301.29;1737391;80;21080;-69
2022/08/21 02:31:37;;;;;;;20.77;6.28;;;;;;;19.00;100.00;99292.77;1721727;82;20981;-69
2022/08/21 02:34:03;;;;;;;28.30;7.20;;;;;;;18.99;100.00;99289.77;1726721;82;21084;-68
2022/08/21 02:36:30;;;;;;;29.45;6.37;;;;;;;18.98;100.00;99281.28;1718844;82;21350;-68
2022/08/21 02:38:58;;;;;;;27.10;6.28;;;;;;;18.97;100.00;99276.09;1725800;82;21159;-68
2022/08/21 02:41:24;;;;;;;26.87;6.90;;;;;;;18.93;100.00;99275.95;1724441;82;21036;-68
2022/08/21 02:43:51;;;;;;;24.60;6.55;;;;;;;18.91;100.00;99269.17;1717013;82;21587;-68
2022/08/21 02:46:19;;;;;;;28.42;6.87;;;;;;;18.91;100.00;99271.37;1726662;82;21086;-68
2022/08/21 02:48:46;;;;;;;21.87;7.08;;;;;;;18.91;100.00;99274.12;1721196;82;21607;-68
2022/08/21 02:51:19;;;;;;;23.27;6.70;;;;;;;18.89;100.00;99270.88;1725438;82;21077;-68
2022/08/21 02:53:46;;;;;;;21.37;6.58;;;;;;;18.84;100.00;99265.02;1726244;82;21080;-68
2022/08/21 02:56:16;;;;;;;20.23;5.55;;;;;;;18.80;100.00;99268.22;1697749;83;21046;-68
2022/08/21 02:58:46;;;;;;;21.60;6.35;;;;;;;18.78;100.00;99266.91;1707871;84;21059;-68
2022/08/21 03:01:13;;;;;;;20.72;6.37;;;;;;;18.75;100.00;99266.22;1717445;82;21959;-68
2022/08/21 03:03:42;;;;;;;28.52;6.62;;;;;;;18.73;100.00;99268.52;1710684;82;21167;-69
2022/08/21 03:06:09;;;;;;;20.90;6.62;;;;;;;18.74;100.00;99279.79;1714321;82;21028;-69
2022/08/21 03:08:37;;;;;;;25.10;6.78;;;;;;;18.74;100.00;99277.81;1727393;82;21080;-69
2022/08/21 03:11:04;;;;;;;26.12;6.85;;;;;;;18.78;100.00;99286.22;1678078;84;21060;-69
2022/08/21 03:13:31;;;;;;;26.15;7.35;;;;;;;18.79;100.00;99283.70;1675903;84;21092;-69
2022/08/21 03:15:58;;;;;;;23.05;6.60;;;;;;;18.81;100.00;99278.67;1688294;84;21514;-69
2022/08/21 03:18:24;;;;;;;25.27;7.03;;;;;;;18.82;100.00;99282.45;1684595;85;21069;-69
2022/08/21 03:20:51;;;;;;;19.60;7.20;;;;;;;18.86;100.00;99287.53;1680030;85;21104;-69
2022/08/21 03:23:17;;;;;;;24.10;6.65;;;;;;;18.91;100.00;99287.10;1684541;85;21086;-69
2022/08/21 03:25:45;;;;;;;22.95;7.40;;;;;;;18.94;100.00;99289.99;1681257;85;21560;-69
2022/08/21 03:28:15;;;;;;;22.95;6.72;;;;;;;18.97;100.00;99304.48;1672840;84;21089;-68
2022/08/21 03:30:43;;;;;;;24.87;7.62;;;;;;;19.00;100.00;99299.67;1678818;84;21081;-69
2022/08/21 03:33:09;;;;;;;21.52;7.30;;;;;;;19.03;100.00;99303.12;1664137;84;21132;-68
2022/08/21 03:35:37;;;;;;;29.10;6.90;;;;;;;19.06;100.00;99309.34;1654657;84;21616;-68
2022/08/21 03:38:04;;;;;;;22.13;7.03;;;;;;;19.06;100.00;99309.94;1686633;83;20995;-68
2022/08/21 03:40:31;;;;;;;24.90;7.45;;;;;;;19.06;100.00;99310.72;1680174;84;21100;-67
2022/08/21 03:42:58;;;;;;;27.58;7.60;;;;;;;19.08;100.00;99314.53;1691022;84;21057;-67
2022/08/21 03:45:25;;;;;;;19.67;6.95;;;;;;;19.13;100.00;99321.23;1730842;82;21403;-68
2022/08/21 03:47:57;;;;;;;21.37;7.37;;;;;;;19.17;100.00;99327.67;1725188;81;21066;-68
2022/08/21 03:50:25;;;;;;;23.57;7.58;;;;;;;19.18;100.00;99325.96;1725099;82;21106;-69
2022/08/21 03:52:51;;;;;;;20.20;7.37;;;;;;;19.22;100.00;99331.05;1718305;82;21145;-69
2022/08/21 03:55:18;;;;;;;23.50;7.92;;;;;;;19.26;100.00;99324.27;1723214;82;21077;-69
2022/08/21 03:57:44;;;;;;;27.48;7.17;;;;;;;19.30;100.00;99324.64;1712017;82;21130;-69
2022/08/21 04:00:13;;;;;;;25.55;7.47;;;;;;;19.33;100.00;99334.19;1715309;82;21059;-68
2022/08/21 04:02:40;;;;;;;25.35;7.70;;;;;;;19.35;100.00;99337.41;1722581;81;21058;-69
2022/08/21 04:05:07;;;;;;;25.92;8.38;;;;;;;19.39;100.00;99343.30;1739877;82;21549;-69
2022/08/21 04:07:33;;;;;;;25.43;8.10;;;;;;;19.44;100.00;99341.51;1724998;82;21031;-69
2022/08/21 04:10:00;;;;;;;22.98;8.25;;;;;;;19.50;100.00;99338.76;1719985;82;20991;-69
2022/08/21 04:12:26;;;;;;;28.50;7.90;;;;;;;19.54;100.00;99339.13;1737768;81;21494;-69
2022/08/21 04:14:52;;;;;;;30.35;8.43;;;;;;;19.59;100.00;99343.64;1742461;82;21006;-69
2022/08/21 04:17:19;;;;;;;31.60;8.63;;;;;;;19.65;100.00;99340.88;1729472;82;20955;-69
2022/08/21 04:19:45;;;;;;;23.80;7.78;;;;;;;19.72;100.00;99330.09;1723125;82;21025;-69
2022/08/21 04:22:12;;;;;;;28.90;7.22;;;;;;;19.83;100.00;99338.17;1735667;82;21038;-68
2022/08/21 04:24:39;;;;;;;26.37;6.83;;;;;;;19.97;100.00;99333.70;1737365;81;21096;-68
2022/08/21 04:27:06;;;;;;;25.52;6.53;;;;;;;20.09;100.00;99332.31;1730368;82;21025;-68
2022/08/21 04:29:33;;;;;;;19.45;6.37;;;;;;;20.19;100.00;99329.91;1719632;81;21174;-68
2022/08/21 04:32:00;;;;;;;26.45;7.33;;;;;;;20.27;100.00;99326.26;1728408;81;21025;-68
2022/08/21 04:34:28;;;;;;;24.80;6.80;;;;;;;20.31;100.00;99315.31;1743104;80;21636;-68
2022/08/21 04:36:54;;;;;;;26.23;5.75;;;;;;;20.38;100.00;99322.45;1744124;81;21018;-68
2022/08/21 04:39:20;;;;;;;29.72;6.65;;;;;;;20.52;100.00;99320.70;1737903;81;21562;-69
2022/08/21 04:41:47;;;;;;;23.90;6.58;;;;;;;20.68;100.00;99325.77;1732017;82;21481;-67
2022/08/21 04:44:13;;;;;;;25.25;6.60;;;;;;;20.74;100.00;99321.03;1740060;81;21085;-68
2022/08/21 04:46:40;;;;;;;26.65;6.50;;;;;;;20.82;100.00;99321.48;1734166;81;21092;-69
2022/08/21 04:49:06;;;;;;;27.52;6.62;;;;;;;20.89;100.00;99317.31;1740323;81;21074;-68
2022/08/21 04:51:35;;;;;;;26.77;5.83;;;;;;;20.92;100.00;99306.34;1739908;81;21074;-68
2022/08/21 04:54:15;;;;;;;22.52;5.78;;;;;;;21.03;100.00;99303.89;1741849;80;21042;-68
2022/08/21 04:56:45;;;;;;;22.77;6.08;;;;;;;21.19;100.00;99311.12;1735404;81;21071;-68
2022/08/21 04:59:26;;;;;;;20.65;5.78;;;;;;;21.30;100.00;99305.88;1729613;83;21089;-69
2022/08/21 05:01:54;;;;;;;22.62;5.72;;;;;;;21.49;100.00;99317.11;1729407;81;21035;-68
2022/08/21 05:04:23;;;;;;;26.40;9.03;;;;;;;21.55;100.00;99303.80;1693585;83;21062;-69
2022/08/21 05:06:51;;;;;;;48.15;26.93;;;;;;;21.58;100.00;99308.05;1670238;85;21108;-70
2022/08/21 05:09:18;;;;;;;45.00;23.25;;;;;;;21.75;100.00;99306.93;1676897;83;21122;-68
2022/08/21 05:11:44;;;;;;;20.08;6.30;;;;;;;21.99;100.00;99293.51;1684074;85;21105;-69
2022/08/21 05:14:11;;;;;;;26.95;6.45;;;;;;;22.06;100.00;99295.88;1691225;83;21125;-69
2022/08/21 05:16:38;;;;;;;24.25;6.12;;;;;;;22.04;100.00;99300.16;1686059;84;21042;-69
2022/08/21 05:19:05;;;;;;;20.85;5.83;;;;;;;22.00;100.00;99306.21;1684267;84;21102;-68
2022/08/21 05:21:33;;;;;;;27.10;5.72;;;;;;;21.98;100.00;99302.40;1680822;84;21687;-68
2022/08/21 05:24:00;;;;;;;22.90;4.95;;;;;;;21.98;100.00;99302.40;1682613;84;21062;-69
2022/08/21 05:26:26;;;;;;;22.48;5.62;;;;;;;21.99;100.00;99305.98;1670577;84;21534;-69
2022/08/21 05:28:52;;;;;;;24.72;5.53;;;;;;;21.99;100.00;99298.48;1682120;84;21070;-69
2022/08/21 05:31:19;;;;;;;25.62;5.67;;;;;;;21.99;100.00;99309.56;1683292;84;21023;-69
2022/08/21 05:33:45;;;;;;;22.07;5.53;;;;;;;22.03;100.00;99308.27;1684993;84;21608;-68
2022/08/21 05:36:11;;;;;;;31.23;6.20;;;;;;;21.83;100.00;99298.42;1696122;84;21049;-69
2022/08/21 05:38:38;;;;;;;29.15;6.25;;;;;;;21.83;100.00;99298.42;1686017;84;21351;-70
2022/08/21 05:41:05;;;;;;;24.57;5.92;;;;;;;21.73;100.00;99300.34;1688386;84;21054;-69
2022/08/21 05:43:35;;;;;;;27.73;5.58;;;;;;;21.65;100.00;99300.50;1685314;84;21129;-69
2022/08/21 05:46:00;;;;;;;22.52;5.37;;;;;;;21.69;100.00;99304.17;1688308;84;21021;-68
2022/08/21 05:48:26;;;;;;;23.30;5.45;;;;;;;21.73;100.00;99301.73;1684849;84;21091;-68
2022/08/21 05:50:54;;;;;;;24.65;5.75;;;;;;;21.77;100.00;99298.48;1683013;85;22303;-68
2022/08/21 05:53:21;;;;;;;25.60;5.65;;;;;;;21.87;100.00;99299.91;1682429;84;21094;-68
2022/08/21 05:55:48;;;;;;;21.37;5.22;;;;;;;22.07;100.00;99301.63;1682833;84;21114;-69
2022/08/21 05:58:20;;;;;;;28.17;5.85;;;;;;;22.35;100.00;99297.95;1672724;84;21117;-67
2022/08/21 06:00:47;;;;;;;24.60;4.92;;;;;;;22.51;100.00;99288.43;1660960;85;21105;-68
2022/08/21 06:03:23;;;;;;;20.97;5.00;;;;;;;22.76;100.00;99284.27;1675414;85;21679;-67
2022/08/21 06:05:50;;;;;;;;;;;;;;;22.76;100.00;99284.27;1678215;85;21567;-68
2022/08/21 06:08:17;;;;;;;29.65;5.20;;;;;;;22.83;100.00;99287.78;1676297;85;20629;-68
2022/08/21 06:10:44;;;;;;;25.80;5.33;;;;;;;22.83;100.00;99285.59;1675990;85;21072;-67
2022/08/21 06:13:11;;;;;;;23.35;5.22;;;;;;;22.95;100.00;99291.02;1670554;84;21070;-67
2022/08/21 06:15:38;;;;;;;28.05;5.08;;;;;;;23.06;100.00;99290.66;1663879;86;21560;-69
2022/08/21 06:18:04;;;;;;;20.90;5.55;;;;;;;23.11;100.00;99280.05;1670809;84;21145;-67
2022/08/21 06:20:31;;;;;;;29.48;6.70;;;;;;;23.22;100.00;99285.81;1672077;84;21686;-69
2022/08/21 06:22:59;;;;;;;24.70;5.20;;;;;;;23.36;100.00;99286.67;1669982;84;21105;-69
2022/08/21 06:25:25;;;;;;;25.23;6.03;;;;;;;23.49;100.00;99287.56;1671102;86;21077;-68
2022/08/21 06:27:52;;;;;;;21.68;6.25;;;;;;;23.56;100.00;99277.97;1670696;84;21639;-70
2022/08/21 06:30:18;;;;;;;22.45;5.45;;;;;;;23.68;100.00;99280.58;1682066;83;21101;-68
2022/08/21 06:32:45;;;;;;;22.40;5.20;;;;;;;23.67;100.00;99274.80;1725459;82;21615;-69
2022/08/21 06:35:11;;;;;;;25.08;4.85;;;;;;;23.68;100.00;99281.16;1723430;83;21022;-69
2022/08/21 06:37:38;;;;;;;24.02;5.28;;;;;;;23.74;100.00;99275.51;1723330;82;21055;-69
2022/08/21 06:40:06;;;;;;;24.15;5.55;;;;;;;23.85;100.00;99277.89;1676713;82;21533;-68
2022/08/21 06:45:10;;;;;;;28.57;5.50;;;;;;;24.23;100.00;99271.42;1799979;79;22874;-67
2022/08/21 06:47:37;;;;;;;35.48;5.92;;;;;;;24.34;100.00;99277.15;1758831;81;21075;-67
2022/08/21 06:50:04;;;;;;;28.15;6.00;;;;;;;24.59;100.00;99269.94;1716663;83;21105;-67
2022/08/21 06:52:31;;;;;;;26.30;5.65;;;;;;;24.64;100.00;99273.80;1708572;84;21569;-69
2022/08/21 06:54:57;;;;;;;28.70;6.55;;;;;;;24.53;100.00;99268.67;1710336;84;21615;-68
2022/08/21 06:57:25;;;;;;;22.42;5.95;;;;;;;24.48;100.00;99267.01;1710222;84;21133;-69
2022/08/21 06:59:51;;;;;;;29.00;6.42;;;;;;;24.53;100.00;99266.70;1698875;84;21113;-68
2022/08/21 07:02:18;;;;;;;19.82;5.40;;;;;;;24.52;100.00;99260.10;1682156;85;21708;-68
2022/08/21 07:04:45;;;;;;;25.75;5.42;;;;;;;24.45;100.00;99260.81;1681864;85;21038;-68
2022/08/21 07:07:11;;;;;;;25.65;5.17;;;;;;;24.51;100.00;99250.98;1682051;85;21022;-68
2022/08/21 07:09:37;;;;;;;27.05;5.92;;;;;;;24.61;100.00;99253.69;1687609;84;21089;-70
2022/08/21 07:12:04;;;;;;;21.95;5.55;;;;;;;24.77;100.00;99262.06;1683521;85;21030;-68
2022/08/21 07:14:31;;;;;;;25.48;5.50;;;;;;;24.83;100.00;99261.19;1683086;85;21093;-68
2022/08/21 07:16:57;;;;;;;24.12;5.47;;;;;;;24.99;100.00;99256.20;1683543;85;21007;-69
2022/08/21 07:19:24;;;;;;;22.13;4.97;;;;;;;25.12;100.00;99260.34;1684358;84;21097;-68
2022/08/21 07:21:50;;;;;;;24.63;5.75;;;;;;;25.21;100.00;99258.66;1681753;85;21034;-69
2022/08/21 07:24:16;;;;;;;18.00;4.47;;;;;;;25.20;100.00;99252.87;1681835;85;21696;-69
2022/08/21 07:26:43;;;;;;;32.23;5.45;;;;;;;25.12;100.00;99257.55;1681867;85;21069;-69
2022/08/21 07:29:09;;;;;;;20.40;5.92;;;;;;;25.27;100.00;99259.91;1690118;84;21102;-70
2022/08/21 07:31:36;;;;;;;22.10;4.90;;;;;;;25.49;100.00;99256.77;1710728;84;21537;-69
2022/08/21 07:34:02;;;;;;;24.27;5.00;;;;;;;25.63;100.00;99261.13;1710885;83;21130;-68
2022/08/21 07:36:29;;;;;;;22.10;5.17;;;;;;;25.72;100.00;99255.43;1710634;84;21033;-68
2022/08/21 07:38:55;;;;;;;22.48;5.47;;;;;;;25.87;100.00;99256.36;1690123;84;21110;-67
2022/08/21 07:41:25;;;;;;;15.78;4.50;;;;;;;26.08;100.00;99255.14;1682180;85;21910;-69
2022/08/21 07:43:51;;;;;;;22.22;4.65;;;;;;;26.23;100.00;99256.09;1677839;84;21078;-68
2022/08/21 07:46:18;;;;;;;26.05;4.95;;;;;;;26.32;100.00;99250.19;1669827;86;21050;-69
2022/08/21 07:48:44;;;;;;;26.52;5.03;;;;;;;26.36;100.00;99246.83;1685290;84;21130;-69
2022/08/21 07:51:13;;;;;;;18.80;4.70;;;;;;;26.36;100.00;99235.05;1698146;84;21026;-69
2022/08/21 07:53:40;;;;;;;21.17;4.80;;;;;;;26.32;100.00;99228.67;1697863;84;21680;-68
2022/08/21 07:56:07;;;;;;;22.20;5.30;;;;;;;26.36;100.00;99226.67;1697239;84;21345;-68
2022/08/21 07:58:34;;;;;;;23.18;5.72;;;;;;;26.40;100.00;99233.08;1697508;84;21617;-70
2022/08/21 08:01:01;;;;;;;26.75;5.33;;;;;;;26.37;100.00;99230.27;1698704;84;20996;-69
2022/08/21 08:03:28;;;;;;;24.32;4.92;;;;;;;26.30;100.00;99224.64;1669225;84;21122;-69
2022/08/21 08:05:55;;;;;;;23.30;6.20;;;;;;;26.17;100.00;99227.77;1698728;84;21016;-68
2022/08/21 08:08:24;;;;;;;21.68;5.35;;;;;;;26.18;100.00;99232.76;1694080;84;21062;-69
2022/08/21 08:10:50;;;;;;;20.27;5.22;;;;;;;26.21;100.00;99238.36;1697684;84;21558;-69
2022/08/21 08:13:17;;;;;;;17.60;5.53;;;;;;;26.30;100.00;99233.02;1697406;84;21083;-69
2022/08/21 08:15:43;;;;;;;22.37;4.87;;;;;;;26.45;100.00;99227.14;1697627;84;21669;-70
2022/08/21 08:21:21;;;;;;;;;;;;;;;26.84;100.00;99223.19;1820124;79;22933;-68
2022/08/21 08:23:47;;;;;;;20.10;4.72;;;;;;;26.96;100.00;99227.01;1790641;80;20131;-68
2022/08/21 08:26:15;;;;;;;18.87;4.83;;;;;;;27.11;100.00;99218.89;1786511;78;21121;-69
2022/08/21 08:28:42;;;;;;;22.62;5.20;;;;;;;27.33;100.00;99218.35;1788463;78;21047;-68
2022/08/21 08:31:08;;;;;;;14.23;4.20;;;;;;;27.57;100.00;99216.81;1789260;80;21089;-68
2022/08/21 08:33:34;;;;;;;16.30;4.42;;;;;;;27.70;100.00;99222.24;1789075;80;21110;-68
2022/08/21 08:36:02;;;;;;;18.27;4.45;;;;;;;27.71;100.00;99218.23;1789742;78;21109;-68
2022/08/21 08:38:29;;;;;;;18.02;4.90;;;;;;;27.68;100.00;99212.03;1790542;80;21668;-68
2022/08/21 08:41:10;;;;;;;17.77;4.53;;;;;;;27.68;100.00;99215.63;1790597;80;21042;-69
2022/08/21 08:43:37;;;;;;;22.52;5.17;;;;;;;27.74;100.00;99212.45;1790598;80;21058;-68
2022/08/21 08:46:08;;;;;;;15.65;5.30;;;;;;;27.60;100.00;99205.64;1784976;78;21549;-69
2022/08/21 08:49:02;;;;;;;21.82;4.58;;;;;;;27.46;100.00;99209.01;1726160;81;21947;-66
2022/08/21 08:52:14;;;;;;;23.20;5.05;;;;;;;27.40;100.00;99204.98;1701000;82;21553;-68
2022/08/21 08:54:48;;;;;;;24.82;5.05;;;;;;;27.34;100.00;99205.98;1708241;81;21098;-68
2022/08/21 08:57:17;;;;;;;22.85;5.30;;;;;;;27.14;100.00;99211.11;1729715;81;21010;-69
2022/08/21 08:59:46;;;;;;;24.18;5.55;;;;;;;27.11;100.00;99212.50;1730640;81;21119;-68
2022/08/21 09:02:14;;;;;;;20.75;5.85;;;;;;;27.23;100.00;99207.95;1724001;83;21030;-70
2022/08/21 09:04:41;;;;;;;21.85;5.08;;;;;;;27.50;100.00;99212.61;1700353;81;21119;-68
2022/08/21 09:07:27;;;;;;;17.90;4.85;;;;;;;27.75;100.00;99209.84;1754012;80;21038;-68
2022/08/21 09:10:27;;;;;;;24.82;5.22;;;;;;;27.92;100.00;99202.04;1750939;81;21088;-69
2022/08/21 09:13:12;;;;;;;24.77;4.85;;;;;;;28.09;100.00;99202.69;1723702;81;21135;-68
2022/08/21 09:15:52;;;;;;;26.93;5.58;;;;;;;28.00;100.00;99204.45;1719514;81;21072;-68
2022/08/21 09:18:52;;;;;;;25.97;5.58;;;;;;;27.93;100.00;99199.45;1739275;81;21152;-70
2022/08/21 09:21:41;;;;;;;27.40;6.12;;;;;;;27.97;100.00;99204.45;1700074;83;21090;-70
2022/08/21 09:24:28;;;;;;;14.55;4.60;;;;;;;27.87;100.00;99208.86;1705133;83;21585;-70
2022/08/21 09:27:06;;;;;;;20.90;5.17;;;;;;;27.78;100.00;99207.64;1702400;84;21002;-69
2022/08/21 09:29:38;;;;;;;22.27;5.60;;;;;;;27.64;100.00;99207.84;1695951;84;21090;-69
2022/08/21 09:32:18;;;;;;;22.00;5.25;;;;;;;27.52;100.00;99207.44;1695105;84;21533;-68
2022/08/21 09:35:02;;;;;;;29.25;5.20;;;;;;;27.37;100.00;99204.38;1723609;82;21110;-69
2022/08/21 09:37:30;;;;;;;24.10;5.92;;;;;;;27.29;100.00;99204.16;1715934;83;21537;-68
2022/08/21 09:39:57;;;;;;;20.75;4.37;;;;;;;27.16;100.00;99210.73;1717083;82;21117;-68
2022/08/21 09:42:28;;;;;;;23.05;5.37;;;;;;;27.00;100.00;99212.46;1717692;82;21520;-68
2022/08/21 09:45:13;;;;;;;24.60;5.08;;;;;;;26.93;100.00;99200.46;1743294;82;21050;-68
2022/08/21 09:47:42;;;;;;;25.02;5.42;;;;;;;26.88;100.00;99211.44;1688831;82;21063;-69
2022/08/21 09:50:19;;;;;;;30.60;6.12;;;;;;;26.71;100.00;99210.73;1731749;82;21003;-68
2022/08/21 09:52:49;;;;;;;21.17;4.95;;;;;;;26.56;100.00;99209.06;1731095;82;21156;-69
2022/08/21 09:58:12;;;;;;;22.98;5.78;;;;;;;26.42;100.00;99211.19;1724951;82;21058;-67
2022/08/21 10:00:38;;;;;;;21.93;5.37;;;;;;;26.41;100.00;99216.55;1731324;82;21027;-67
2022/08/21 10:03:16;;;;;;;22.40;4.87;;;;;;;26.38;100.00;99205.38;1732743;82;21082;-68
2022/08/21 10:05:59;;;;;;;25.90;5.72;;;;;;;26.45;100.00;99210.98;1721943;82;21063;-68
2022/08/21 10:08:27;;;;;;;28.00;5.10;;;;;;;26.47;100.00;99208.01;1720675;82;21039;-67
2022/08/21 10:11:04;;;;;;;23.87;5.42;;;;;;;26.42;100.00;99206.19;1718321;82;21066;-68
2022/08/21 10:13:45;;;;;;;31.97;6.33;;;;;;;26.36;100.00;99203.58;1743591;78;67831;-74
2022/08/21 10:16:54;;;;;;;26.68;6.17;;;;;;;26.35;100.00;99205.56;1770704;79;22006;-73
2022/08/21 10:19:26;;;;;;;111.35;94.42;;;;;;;26.37;100.00;99202.36;1758928;81;21050;-72
2022/08/21 10:22:37;;;;;;;147.47;116.40;;;;;;;26.23;100.00;99200.30;1728335;81;21165;-74
2022/08/21 10:25:23;;;;;;;55.78;34.70;;;;;;;26.17;100.00;99190.67;1756484;81;21015;-73
2022/08/21 10:28:04;;;;;;;27.75;8.00;;;;;;;26.16;100.00;99191.84;1740492;81;21458;-74
2022/08/21 10:30:48;;;;;;;25.40;6.03;;;;;;;26.14;100.00;99184.47;1760528;81;21030;-74
2022/08/21 10:33:46;;;;;;;22.50;6.60;;;;;;;26.20;100.00;99190.72;1733837;81;21085;-74
2022/08/21 10:36:35;;;;;;;21.48;5.87;;;;;;;26.32;100.00;99187.41;1730539;83;21006;-74
2022/08/21 10:39:31;;;;;;;19.65;6.47;;;;;;;26.44;100.00;99186.47;1732390;81;21058;-73
2022/08/21 10:42:09;;;;;;;21.63;4.97;;;;;;;26.53;100.00;99187.52;1730769;83;21074;-72
2022/08/21 10:44:47;;;;;;;25.30;4.70;;;;;;;26.64;100.00;99184.19;1694078;83;21046;-73
2022/08/21 10:47:21;;;;;;;26.30;4.30;;;;;;;26.65;100.00;99184.37;1730266;83;21042;-73
2022/08/21 10:50:14;;;;;;;26.12;5.30;;;;;;;26.68;100.00;99182.98;1732775;81;21379;-75
2022/08/21 10:53:07;;;;;;;22.90;4.65;;;;;;;26.72;100.00;99182.41;1760462;81;21081;-73
2022/08/21 10:55:47;;;;;;;23.38;4.47;;;;;;;26.80;100.00;99183.24;1755449;81;21085;-73
2022/08/21 10:58:40;;;;;;;25.30;5.15;;;;;;;26.82;100.00;99175.29;1760414;81;22130;-74
2022/08/21 11:01:27;;;;;;;32.98;5.67;;;;;;;26.78;100.00;99173.08;1729948;83;21083;-74
2022/08/21 11:04:35;;;;;;;30.27;5.87;;;;;;;26.72;100.00;99171.24;1729898;83;21108;-74
2022/08/21 11:07:06;;;;;;;34.65;8.75;;;;;;;26.76;100.00;99174.05;1730328;83;21026;-73
2022/08/21 11:09:38;;;;;;;28.00;5.42;;;;;;;26.75;100.00;99169.65;1711124;81;21073;-73
2022/08/21 11:12:19;;;;;;;26.33;7.12;;;;;;;26.76;100.00;99167.66;1760250;80;21623;-74
2022/08/21 11:15:01;;;;;;;15.48;3.45;;;;;;;26.78;100.00;99158.31;1751460;81;21616;-74
2022/08/21 11:17:38;;;;;;;20.52;4.10;;;;;;;26.79;100.00;99158.50;1735216;81;21098;-73
2022/08/21 11:20:22;;;;;;;16.65;4.17;;;;;;;26.80;100.00;99160.91;1732613;81;21764;-74
2022/08/21 11:23:00;;;;;;;21.05;4.08;;;;;;;26.88;100.00;99169.55;1758618;81;21097;-72
2022/08/21 11:25:37;;;;;;;22.13;4.12;;;;;;;26.92;100.00;99154.20;1760325;81;21417;-74
2022/08/21 11:28:29;;;;;;;29.35;4.58;;;;;;;26.90;100.00;99161.56;1757726;81;21054;-74
2022/08/21 11:31:04;;;;;;;21.15;4.05;;;;;;;26.92;100.00;99155.00;1724735;83;21434;-73
2022/08/21 11:34:17;;;;;;;22.10;3.95;;;;;;;26.92;100.00;99155.59;1724761;83;21085;-73
2022/08/21 11:37:05;;;;;;;22.07;4.28;;;;;;;26.94;100.00;99151.80;1738278;81;21077;-72
2022/08/21 11:39:52;;;;;;;21.62;4.03;;;;;;;26.93;100.00;99157.98;1748427;81;21057;-71
2022/08/21 11:42:41;;;;;;;19.55;4.03;;;;;;;26.94;100.00;99141.43;1742543;81;21110;-71